Time;durP1;ratioP1;P1;durP2;ratioP2;P2;SDS_P1;SDS_P2;PMS_P1;PMS_P2;Temp;Humidity;BMP_temperature;BMP_pressure;BME280_temperature;BME280_humidity;BME280_pressure;Samples;Min_cycle;Max_cycle;Signal;HPM_P1;HPM_P2
2021/07/13 00:01:51;;;;;;;5.05;3.80;;;;;;;21.68;66.14;101489.59;5009329;28;20042;-64
2021/07/13 00:04:17;;;;;;;4.40;3.40;;;;;;;21.68;66.11;101495.75;5007750;28;20041;-64
2021/07/13 00:06:42;;;;;;;3.70;3.35;;;;;;;21.69;65.89;101499.25;5007744;28;20392;-64
2021/07/13 00:09:08;;;;;;;4.75;3.50;;;;;;;21.68;65.84;101497.59;5009083;28;20473;-64
2021/07/13 00:11:34;;;;;;;3.97;3.25;;;;;;;21.67;65.73;101502.13;5008487;28;20041;-64
2021/07/13 00:13:59;;;;;;;4.07;3.65;;;;;;;21.67;65.84;101502.13;5009697;28;20034;-65
2021/07/13 00:16:25;;;;;;;3.63;3.20;;;;;;;21.67;65.84;101498.63;5009010;28;20030;-65
2021/07/13 00:18:51;;;;;;;3.85;3.33;;;;;;;21.67;65.65;101496.78;5008220;28;20068;-65
2021/07/13 00:21:16;;;;;;;4.03;3.45;;;;;;;21.67;65.89;101490.63;5006808;28;20496;-64
2021/07/13 00:23:43;;;;;;;3.70;3.10;;;;;;;21.66;65.42;101495.13;4996160;28;20061;-65
2021/07/13 00:26:09;;;;;;;3.70;3.20;;;;;;;21.66;65.50;101497.81;5008851;28;20037;-65
2021/07/13 00:28:35;;;;;;;6.25;3.10;;;;;;;21.68;65.61;101492.25;4989846;28;20125;-65
2021/07/13 00:31:01;;;;;;;4.47;3.22;;;;;;;21.67;65.69;101490.63;5007786;28;20545;-65
2021/07/13 00:33:26;;;;;;;4.32;3.17;;;;;;;21.66;65.38;101486.28;5001378;28;20113;-65
2021/07/13 00:35:51;;;;;;;3.65;3.25;;;;;;;21.67;65.44;101503.97;5022594;28;20112;-65
2021/07/13 00:38:17;;;;;;;3.90;3.08;;;;;;;21.66;65.76;101500.47;5010363;28;20120;-65
2021/07/13 00:40:43;;;;;;;3.95;3.13;;;;;;;21.66;65.66;101505.81;5012686;28;20030;-64
2021/07/13 00:43:09;;;;;;;3.40;2.85;;;;;;;21.66;65.74;101511.16;4994946;28;20152;-64
2021/07/13 00:45:34;;;;;;;3.85;3.33;;;;;;;21.67;65.67;101511.97;5012413;28;20038;-65
2021/07/13 00:48:00;;;;;;;5.50;3.50;;;;;;;21.66;65.21;101513.00;5009430;28;20030;-65
2021/07/13 00:50:27;;;;;;;3.78;3.28;;;;;;;21.67;65.45;101517.31;5008985;28;20048;-63
2021/07/13 00:52:53;;;;;;;4.25;3.00;;;;;;;21.66;65.10;101513.00;5012277;28;20034;-65
2021/07/13 00:55:19;;;;;;;3.78;3.10;;;;;;;21.66;65.46;101521.84;5012402;28;20038;-65
2021/07/13 00:57:45;;;;;;;3.53;2.67;;;;;;;21.66;65.23;101518.34;5027765;28;20461;-64
2021/07/13 01:00:15;;;;;;;3.67;3.28;;;;;;;21.65;65.46;101525.53;5027305;28;20111;-64
2021/07/13 01:02:42;;;;;;;3.13;2.72;;;;;;;21.64;65.48;101531.06;4995028;28;20026;-65
2021/07/13 01:05:19;;;;;;;3.63;3.13;;;;;;;21.63;65.10;101524.91;5010990;28;20060;-65
2021/07/13 01:07:56;;;;;;;4.55;3.22;;;;;;;21.62;65.31;101530.41;5006394;28;20107;-65
2021/07/13 01:10:31;;;;;;;4.20;2.92;;;;;;;21.62;64.99;101530.41;5011787;28;20405;-64
2021/07/13 01:13:17;;;;;;;3.88;2.90;;;;;;;21.61;65.15;101534.09;5005236;28;20038;-65
2021/07/13 01:15:49;;;;;;;5.35;3.28;;;;;;;21.63;65.13;101521.41;5007527;28;20037;-65
2021/07/13 01:18:17;;;;;;;5.05;2.90;;;;;;;21.63;64.98;101521.41;5011872;28;20018;-63
2021/07/13 01:21:01;;;;;;;4.00;3.15;;;;;;;21.62;65.18;101522.38;5011226;28;20105;-64
2021/07/13 01:24:04;;;;;;;3.28;2.97;;;;;;;21.59;65.08;101520.13;4998263;28;20057;-64
2021/07/13 01:26:44;;;;;;;3.80;2.95;;;;;;;21.58;64.89;101529.97;5002859;28;20088;-64
2021/07/13 01:29:12;;;;;;;3.30;2.67;;;;;;;21.62;65.18;101527.72;4993791;28;20030;-64
2021/07/13 01:31:41;;;;;;;3.88;2.80;;;;;;;21.63;65.34;101537.41;4995447;28;20049;-64
2021/07/13 01:34:36;;;;;;;3.47;2.50;;;;;;;21.58;64.91;101529.13;5003397;28;20049;-65
2021/07/13 01:37:04;;;;;;;3.85;2.63;;;;;;;21.62;65.13;101530.41;5003956;28;20042;-64
2021/07/13 01:39:30;;;;;;;4.82;2.92;;;;;;;21.62;64.88;101530.41;5000370;28;20185;-64
2021/07/13 01:42:01;;;;;;;3.78;2.90;;;;;;;21.62;65.12;101530.41;5009673;28;20172;-64
2021/07/13 01:44:29;;;;;;;3.78;3.05;;;;;;;21.62;65.18;101531.25;5003674;28;20035;-65
2021/07/13 01:46:55;;;;;;;3.55;2.70;;;;;;;21.62;65.19;101528.59;4992915;28;20042;-64
2021/07/13 01:49:27;;;;;;;3.58;2.90;;;;;;;21.61;64.72;101526.06;5011561;28;20111;-64
2021/07/13 01:51:53;;;;;;;3.15;2.85;;;;;;;21.62;65.00;101525.06;5010778;28;20770;-64
2021/07/13 01:54:21;;;;;;;2.97;2.42;;;;;;;21.62;64.96;101528.59;5019735;28;20498;-64
2021/07/13 01:56:50;;;;;;;3.67;3.17;;;;;;;21.61;65.01;101537.59;5003013;28;20065;-64
2021/07/13 01:59:18;;;;;;;4.32;2.65;;;;;;;21.62;65.07;101538.41;4993637;28;20026;-64
2021/07/13 02:01:46;;;;;;;4.20;3.10;;;;;;;21.62;64.91;101538.41;4998582;28;20130;-64
2021/07/13 02:04:13;;;;;;;4.18;2.75;;;;;;;21.61;65.04;101537.59;5009665;28;20030;-64
2021/07/13 02:06:42;;;;;;;3.80;2.65;;;;;;;21.61;65.03;101534.91;5010013;28;20044;-64
2021/07/13 02:09:11;;;;;;;4.18;2.85;;;;;;;21.61;64.86;101537.59;5011489;28;20045;-64
2021/07/13 02:11:37;;;;;;;3.45;2.80;;;;;;;21.60;65.16;101532.44;5010351;28;20033;-64
2021/07/13 02:14:03;;;;;;;3.17;2.67;;;;;;;21.61;65.05;101542.09;4997410;28;20046;-64
2021/07/13 02:16:29;;;;;;;3.17;2.72;;;;;;;21.61;64.94;101545.59;4993413;28;20088;-64
2021/07/13 02:18:55;;;;;;;3.75;2.65;;;;;;;21.60;64.79;101543.94;5010934;28;20042;-64
2021/07/13 02:21:21;;;;;;;3.20;2.50;;;;;;;21.60;64.83;101543.13;5008570;28;20371;-64
2021/07/13 02:23:47;;;;;;;3.00;2.35;;;;;;;21.60;65.00;101543.94;5003760;28;20117;-64
2021/07/13 02:26:23;;;;;;;3.25;2.83;;;;;;;21.58;64.86;101548.66;5009415;28;20037;-64
2021/07/13 02:28:54;;;;;;;3.67;2.88;;;;;;;21.59;65.02;101544.97;5008811;28;20046;-64
2021/07/13 02:31:35;;;;;;;3.75;2.25;;;;;;;21.57;64.69;101549.69;5010620;28;20129;-64
2021/07/13 02:34:07;;;;;;;3.70;2.70;;;;;;;21.59;64.72;101549.47;5020548;28;20029;-67
2021/07/13 02:36:35;;;;;;;3.78;2.70;;;;;;;21.59;64.91;101552.97;4996669;28;20030;-64
2021/07/13 02:39:05;;;;;;;3.38;2.70;;;;;;;21.60;64.80;101551.13;5007702;28;20106;-64
2021/07/13 02:41:31;;;;;;;3.25;2.70;;;;;;;21.61;64.74;101566.13;5016424;28;20486;-66
2021/07/13 02:43:57;;;;;;;2.42;2.22;;;;;;;21.60;64.73;101567.16;5010487;28;20038;-64
2021/07/13 02:46:26;;;;;;;3.72;2.70;;;;;;;21.60;64.44;101556.47;5009970;28;20038;-64
2021/07/13 02:48:52;;;;;;;4.03;2.53;;;;;;;21.59;64.63;101560.16;5022469;28;20167;-64
2021/07/13 02:51:18;;;;;;;3.30;2.60;;;;;;;21.60;64.80;101569.81;5010067;28;20046;-65
2021/07/13 02:53:46;;;;;;;4.15;2.60;;;;;;;21.59;64.58;101570.84;5009007;28;20049;-64
2021/07/13 02:56:14;;;;;;;3.53;2.80;;;;;;;21.59;64.43;101570.84;5009797;28;20037;-64
2021/07/13 02:58:40;;;;;;;4.45;2.40;;;;;;;21.58;64.46;101572.69;4992947;28;20040;-64
2021/07/13 03:01:07;;;;;;;3.17;2.50;;;;;;;21.58;64.81;101577.19;5025236;28;20029;-64
2021/07/13 03:03:36;;;;;;;4.10;2.63;;;;;;;21.57;64.74;101581.72;5010106;28;20049;-64
2021/07/13 03:06:03;;;;;;;3.47;2.60;;;;;;;21.58;64.37;101582.53;5009763;28;20665;-64
2021/07/13 03:08:29;;;;;;;3.58;2.53;;;;;;;21.57;64.35;101580.88;5024805;28;20049;-64
2021/07/13 03:10:58;;;;;;;3.33;2.55;;;;;;;21.56;64.58;101577.38;5003411;28;20030;-64
2021/07/13 03:13:25;;;;;;;3.50;2.50;;;;;;;21.56;64.39;101580.06;5004137;28;20476;-64
2021/07/13 03:15:51;;;;;;;3.65;2.80;;;;;;;21.57;64.27;101580.88;5009450;28;20034;-65
2021/07/13 03:18:18;;;;;;;3.15;2.60;;;;;;;21.57;64.22;101586.22;5010542;28;20465;-64
2021/07/13 03:20:49;;;;;;;3.45;2.65;;;;;;;21.55;64.55;101573.06;4990134;28;20397;-64
2021/07/13 03:23:17;;;;;;;3.60;2.88;;;;;;;21.56;64.46;101573.91;5000013;28;20104;-64
2021/07/13 03:25:44;;;;;;;3.55;2.55;;;;;;;21.56;64.39;101580.06;5006385;28;20125;-64
2021/07/13 03:28:12;;;;;;;4.00;2.58;;;;;;;21.55;64.37;101585.59;5001434;28;20050;-64
2021/07/13 03:30:39;;;;;;;3.15;2.45;;;;;;;21.55;64.12;101582.94;5004662;28;20057;-66
2021/07/13 03:33:08;;;;;;;3.55;2.65;;;;;;;21.55;64.23;101586.41;5002205;28;20038;-64
2021/07/13 03:35:35;;;;;;;3.10;2.53;;;;;;;21.55;64.47;101594.44;5002437;28;20118;-64
2021/07/13 03:38:01;;;;;;;2.90;2.30;;;;;;;21.55;64.33;101589.09;5009344;28;20631;-64
2021/07/13 03:40:28;;;;;;;4.88;2.60;;;;;;;21.55;64.46;101593.59;5008024;28;20034;-64
2021/07/13 03:42:55;;;;;;;4.75;3.03;;;;;;;21.55;64.30;101589.09;4991213;28;20044;-64
2021/07/13 03:45:21;;;;;;;4.57;2.97;;;;;;;21.55;64.37;101593.59;5009581;28;20084;-64
2021/07/13 03:47:51;;;;;;;3.67;2.50;;;;;;;21.55;64.29;101594.44;5008969;28;20034;-64
2021/07/13 03:50:19;;;;;;;3.05;2.60;;;;;;;21.53;64.39;101597.28;5008397;28;20022;-64
2021/07/13 03:52:45;;;;;;;3.70;2.50;;;;;;;21.53;64.10;101597.28;4991526;28;20037;-64
2021/07/13 03:55:12;;;;;;;3.85;2.88;;;;;;;21.55;64.17;101598.94;4990971;28;20029;-64
2021/07/13 03:57:39;;;;;;;3.00;2.40;;;;;;;21.54;64.20;101598.13;5009757;28;20420;-64
2021/07/13 04:00:08;;;;;;;4.40;2.50;;;;;;;21.53;63.98;101597.28;5008710;28;20038;-64
2021/07/13 04:02:34;;;;;;;3.40;2.75;;;;;;;21.53;64.01;101594.63;5001564;28;20380;-64
2021/07/13 04:04:59;;;;;;;3.20;2.63;;;;;;;21.53;64.40;101599.97;5002515;28;20030;-65
2021/07/13 04:07:25;;;;;;;3.17;2.60;;;;;;;21.53;64.34;101591.13;4978413;28;20117;-64
2021/07/13 04:09:50;;;;;;;4.70;2.50;;;;;;;21.52;64.29;101595.63;4997650;28;20426;-64
2021/07/13 04:12:16;;;;;;;3.00;2.50;;;;;;;21.52;64.40;101595.63;5006512;28;20026;-64
2021/07/13 04:14:41;;;;;;;2.67;2.38;;;;;;;21.52;64.26;101595.63;5009110;28;20496;-64
2021/07/13 04:17:07;;;;;;;3.00;2.40;;;;;;;21.53;64.01;101605.31;5008719;28;20041;-64
2021/07/13 04:19:32;;;;;;;3.30;2.42;;;;;;;21.52;63.91;101600.97;5001505;28;20062;-65
2021/07/13 04:21:57;;;;;;;4.22;2.70;;;;;;;21.51;64.08;101601.19;5003084;28;20041;-64
2021/07/13 04:24:23;;;;;;;3.45;2.65;;;;;;;21.50;64.11;101604.88;5009425;28;20032;-64
2021/07/13 04:26:48;;;;;;;4.93;3.00;;;;;;;21.51;64.01;101610.00;5008658;28;20034;-64
2021/07/13 04:29:14;;;;;;;3.10;2.67;;;;;;;21.52;64.24;101616.19;5007722;28;20559;-64
2021/07/13 04:31:39;;;;;;;3.40;2.80;;;;;;;21.50;63.93;101619.03;5009363;28;20122;-64
2021/07/13 04:34:10;;;;;;;3.20;2.72;;;;;;;21.51;64.19;101625.19;4996949;28;20042;-64
2021/07/13 04:36:37;;;;;;;3.58;2.60;;;;;;;21.51;63.92;101622.53;4994081;28;20118;-64
2021/07/13 04:39:04;;;;;;;5.63;2.70;;;;;;;21.51;64.09;101627.88;5008744;28;20056;-64
2021/07/13 04:41:30;;;;;;;3.00;2.58;;;;;;;21.50;64.04;101629.72;5003878;28;20694;-64
2021/07/13 04:43:56;;;;;;;3.30;2.50;;;;;;;21.51;64.04;101627.88;4996625;28;20033;-64
2021/07/13 04:46:22;;;;;;;3.80;2.97;;;;;;;21.50;64.17;101632.38;5023413;28;20507;-64
2021/07/13 04:48:47;;;;;;;3.45;2.78;;;;;;;21.49;63.71;101625.41;5008597;28;20061;-65
2021/07/13 04:51:14;;;;;;;3.30;2.63;;;;;;;21.50;64.20;101621.72;5007678;28;20551;-64
2021/07/13 04:53:41;;;;;;;3.30;2.47;;;;;;;21.50;64.04;101629.72;5000019;28;20069;-64
2021/07/13 04:56:07;;;;;;;3.70;2.70;;;;;;;21.49;63.65;101622.72;5008242;28;20513;-64
2021/07/13 04:58:32;;;;;;;3.28;2.50;;;;;;;21.49;63.74;101628.06;4995034;28;20072;-64
2021/07/13 05:00:57;;;;;;;4.32;2.88;;;;;;;21.49;63.67;101635.25;4990683;28;20099;-64
2021/07/13 05:03:23;;;;;;;3.22;2.63;;;;;;;21.49;63.62;101627.25;5008961;28;20038;-64
2021/07/13 05:05:48;;;;;;;3.80;2.80;;;;;;;21.49;63.87;101627.25;4989593;28;20404;-64
2021/07/13 05:08:14;;;;;;;4.30;2.72;;;;;;;21.49;63.76;101637.91;4990713;28;20060;-64
2021/07/13 05:10:39;;;;;;;3.30;2.75;;;;;;;21.48;63.74;101634.41;5008693;28;20033;-64
2021/07/13 05:13:09;;;;;;;4.75;2.80;;;;;;;21.49;63.62;101633.41;5008775;28;20042;-64
2021/07/13 05:15:35;;;;;;;4.85;3.03;;;;;;;21.48;63.64;101634.41;5008603;28;20030;-64
2021/07/13 05:18:01;;;;;;;4.00;3.17;;;;;;;21.48;63.87;101626.41;5008448;28;20057;-64
2021/07/13 05:20:26;;;;;;;4.30;2.80;;;;;;;21.47;63.49;101635.44;4989346;28;20050;-64
2021/07/13 05:22:58;;;;;;;3.70;2.53;;;;;;;21.48;63.54;101642.44;5001450;28;20681;-64
2021/07/13 05:25:24;;;;;;;3.80;2.47;;;;;;;21.49;63.58;101637.91;5005872;28;20029;-66
2021/07/13 05:27:49;;;;;;;3.50;2.33;;;;;;;21.48;63.63;101642.44;4998454;28;20065;-64
2021/07/13 05:30:17;;;;;;;3.13;2.40;;;;;;;21.48;63.82;101639.75;5011874;28;20512;-64
2021/07/13 05:32:42;;;;;;;3.80;2.53;;;;;;;21.48;63.54;101639.75;5007743;28;20042;-64
2021/07/13 05:35:08;;;;;;;3.15;2.45;;;;;;;21.48;63.59;101649.63;5001064;28;20448;-64
2021/07/13 05:37:35;;;;;;;3.75;2.45;;;;;;;21.48;63.66;101653.09;5026812;28;20539;-64
2021/07/13 05:40:05;;;;;;;4.20;2.80;;;;;;;21.48;63.41;101650.44;5011597;28;20132;-64
2021/07/13 05:42:31;;;;;;;3.50;2.58;;;;;;;21.48;63.83;101652.28;5012069;28;20119;-64
2021/07/13 05:44:56;;;;;;;3.97;2.72;;;;;;;21.48;63.72;101652.28;5010901;28;20050;-64
2021/07/13 05:47:22;;;;;;;3.38;2.40;;;;;;;21.47;63.54;101647.97;5003339;28;20041;-64
2021/07/13 05:49:48;;;;;;;4.28;2.50;;;;;;;21.47;63.71;101654.13;5005538;28;20052;-64
2021/07/13 05:52:13;;;;;;;3.83;2.72;;;;;;;21.48;63.73;101662.97;5011875;28;20029;-64
2021/07/13 05:54:39;;;;;;;3.13;2.80;;;;;;;21.47;63.85;101662.13;5011658;28;20496;-64
2021/07/13 05:57:04;;;;;;;3.53;2.75;;;;;;;21.48;63.75;101665.63;4997491;28;20042;-64
2021/07/13 05:59:30;;;;;;;4.13;2.92;;;;;;;21.48;63.63;101655.78;5010407;28;20133;-64
2021/07/13 06:01:55;;;;;;;3.17;2.72;;;;;;;21.47;63.54;101659.47;5010503;28;20460;-64
2021/07/13 06:04:20;;;;;;;3.65;2.50;;;;;;;21.47;63.65;101661.31;5001948;28;20467;-64
2021/07/13 06:06:46;;;;;;;3.80;2.83;;;;;;;21.47;63.59;101664.81;5004421;28;20044;-64
2021/07/13 06:09:11;;;;;;;3.95;2.70;;;;;;;21.48;63.25;101670.97;5010817;28;20044;-64
2021/07/13 06:11:37;;;;;;;3.72;2.60;;;;;;;21.47;63.20;101672.81;5010451;28;20044;-64
2021/07/13 06:14:02;;;;;;;3.60;2.78;;;;;;;21.48;63.33;101676.31;4996771;28;20102;-64
2021/07/13 06:16:28;;;;;;;3.25;2.70;;;;;;;21.47;63.49;101672.81;5010486;28;20077;-64
2021/07/13 06:18:53;;;;;;;3.10;2.47;;;;;;;21.48;63.51;101676.31;5009530;28;20127;-64
2021/07/13 06:21:19;;;;;;;3.10;2.67;;;;;;;21.47;63.30;101675.47;5010148;28;20496;-64
2021/07/13 06:23:44;;;;;;;4.28;2.95;;;;;;;21.47;63.33;101680.81;5010554;28;20069;-64
2021/07/13 06:26:09;;;;;;;5.40;2.90;;;;;;;21.48;63.22;101673.63;5009269;28;20034;-64
2021/07/13 06:28:35;;;;;;;4.47;3.15;;;;;;;21.48;63.20;101677.13;5019523;28;20144;-64
2021/07/13 06:31:01;;;;;;;3.20;2.70;;;;;;;21.47;63.27;101672.81;5007225;28;20674;-64
2021/07/13 06:33:26;;;;;;;4.15;2.90;;;;;;;21.48;63.33;101684.31;4999207;28;20038;-64
2021/07/13 06:35:51;;;;;;;4.10;3.10;;;;;;;21.47;63.36;101686.16;5009084;28;20072;-64
2021/07/13 06:38:17;;;;;;;4.47;3.22;;;;;;;21.48;63.03;101689.66;5008898;28;20084;-63
2021/07/13 06:40:42;;;;;;;3.72;2.78;;;;;;;21.49;63.01;101688.63;5010924;28;20394;-64
2021/07/13 06:43:08;;;;;;;3.72;3.10;;;;;;;21.48;63.45;101697.66;5010482;28;20041;-65
2021/07/13 06:45:33;;;;;;;3.63;2.65;;;;;;;21.47;63.37;101691.50;5010279;28;20057;-64
2021/07/13 06:47:59;;;;;;;4.43;2.80;;;;;;;21.47;63.43;101699.50;4996563;28;20038;-64
2021/07/13 06:50:27;;;;;;;4.38;2.90;;;;;;;21.46;63.08;101697.84;5009898;28;20116;-63
2021/07/13 06:52:54;;;;;;;4.93;3.25;;;;;;;21.47;63.06;101704.00;5010950;28;20076;-63
2021/07/13 06:55:21;;;;;;;3.70;2.97;;;;;;;21.47;62.96;101704.84;5009766;28;20036;-64
2021/07/13 06:57:46;;;;;;;3.35;2.92;;;;;;;21.47;63.28;101715.53;5000510;28;20027;-63
2021/07/13 07:00:13;;;;;;;4.05;3.00;;;;;;;21.47;63.03;101720.84;5006668;28;20563;-63
2021/07/13 07:02:38;;;;;;;4.00;3.42;;;;;;;21.47;63.00;101725.38;5009322;28;20041;-64
2021/07/13 07:05:06;;;;;;;4.13;3.15;;;;;;;21.46;63.19;101729.88;5012211;28;20042;-64
2021/07/13 07:07:31;;;;;;;4.30;3.00;;;;;;;21.46;62.84;101726.34;5026721;28;20022;-63
2021/07/13 07:09:56;;;;;;;4.22;2.97;;;;;;;21.45;63.20;101728.19;5017636;28;20462;-65
2021/07/13 07:12:22;;;;;;;4.82;3.20;;;;;;;21.46;63.29;101742.38;5010963;28;20505;-63
2021/07/13 07:14:47;;;;;;;4.47;3.13;;;;;;;21.46;63.10;101732.56;5009762;28;20044;-63
2021/07/13 07:17:13;;;;;;;4.53;3.47;;;;;;;21.46;63.25;101743.22;5012055;28;20041;-64
2021/07/13 07:19:38;;;;;;;4.93;3.30;;;;;;;21.47;63.42;101741.41;5007160;28;20045;-64
2021/07/13 07:22:04;;;;;;;4.50;3.53;;;;;;;21.47;63.54;101744.06;5012650;28;20054;-64
2021/07/13 07:24:29;;;;;;;6.03;3.13;;;;;;;21.47;63.66;101752.06;5018211;28;20113;-64
2021/07/13 07:26:55;;;;;;;4.68;3.13;;;;;;;21.47;63.50;101749.41;4997482;28;20050;-63
2021/07/13 07:29:20;;;;;;;7.18;3.92;;;;;;;21.46;63.57;101750.38;5018767;28;20027;-64
2021/07/13 07:31:46;;;;;;;4.85;3.10;;;;;;;21.46;63.83;101756.59;5014756;28;20524;-63
2021/07/13 07:34:11;;;;;;;5.93;3.60;;;;;;;21.47;63.74;101749.41;4993369;28;20038;-63
2021/07/13 07:36:37;;;;;;;4.15;3.25;;;;;;;21.47;63.67;101752.91;5009418;28;20056;-63
2021/07/13 07:39:04;;;;;;;4.88;3.30;;;;;;;21.48;63.76;101751.88;5007560;28;20795;-63
2021/07/13 07:41:29;;;;;;;4.68;3.33;;;;;;;21.48;63.72;101753.72;4990405;28;20709;-64
2021/07/13 07:43:55;;;;;;;6.20;3.30;;;;;;;21.47;64.03;101755.56;5009123;28;20040;-63
2021/07/13 07:46:21;;;;;;;5.22;3.33;;;;;;;21.48;64.14;101754.56;5010695;28;20092;-65
2021/07/13 07:48:47;;;;;;;8.23;4.07;;;;;;;21.48;63.92;101753.72;5009971;28;20030;-63
2021/07/13 07:51:12;;;;;;;7.60;3.67;;;;;;;21.48;63.80;101745.72;5005828;28;20045;-64
2021/07/13 07:53:38;;;;;;;9.68;3.08;;;;;;;21.48;64.20;101751.88;5025344;28;20037;-63
2021/07/13 07:56:03;;;;;;;10.85;3.33;;;;;;;21.48;63.83;101749.22;5031760;28;20556;-65
2021/07/13 07:58:29;;;;;;;7.15;3.70;;;;;;;21.47;63.87;101760.91;5018257;28;20072;-65
2021/07/13 08:00:55;;;;;;;10.30;5.10;;;;;;;21.45;63.66;101760.22;4996620;28;20136;-66
2021/07/13 08:03:20;;;;;;;11.00;4.60;;;;;;;21.42;63.40;101752.59;5012552;28;20037;-65
2021/07/13 08:05:46;;;;;;;7.65;4.95;;;;;;;21.38;63.34;101755.84;4998033;28;20504;-65
2021/07/13 08:08:12;;;;;;;13.10;4.40;;;;;;;21.38;63.46;101758.50;5021017;28;20452;-65
2021/07/13 08:10:37;;;;;;;12.23;5.75;;;;;;;21.35;62.99;101756.22;5014922;28;20087;-65
2021/07/13 08:13:04;;;;;;;10.85;5.00;;;;;;;21.34;63.25;101750.06;5022273;28;20048;-65
2021/07/13 08:15:30;;;;;;;10.30;4.40;;;;;;;21.35;63.09;101758.88;5025697;28;20421;-66
2021/07/13 08:17:56;;;;;;;9.95;4.63;;;;;;;21.34;62.98;101752.72;5024109;28;20045;-65
2021/07/13 08:20:21;;;;;;;10.65;4.95;;;;;;;21.33;62.79;101758.25;5019111;28;20034;-66
2021/07/13 08:22:48;;;;;;;12.60;4.85;;;;;;;21.32;62.92;101744.06;5023535;28;20044;-66
2021/07/13 08:25:20;;;;;;;8.55;4.60;;;;;;;21.30;62.50;101750.59;5002290;28;20635;-65
2021/07/13 08:27:47;;;;;;;9.27;4.43;;;;;;;21.30;62.73;101756.75;5023352;28;20064;-65
2021/07/13 08:30:13;;;;;;;10.23;4.15;;;;;;;21.30;62.84;101758.59;5021745;28;20041;-65
2021/07/13 08:32:39;;;;;;;8.43;4.25;;;;;;;21.29;62.37;101752.44;5014783;28;20084;-66
2021/07/13 08:35:05;;;;;;;12.70;4.68;;;;;;;21.29;62.56;101763.09;4992092;28;20038;-66
2021/07/13 08:37:33;;;;;;;9.50;3.95;;;;;;;21.28;62.44;101749.94;4999941;28;20419;-65
2021/07/13 08:39:59;;;;;;;8.20;4.25;;;;;;;21.27;62.43;101751.78;5006926;28;20113;-65
2021/07/13 08:42:25;;;;;;;7.38;3.90;;;;;;;21.26;62.46;101750.13;5007380;28;20046;-65
2021/07/13 08:44:51;;;;;;;5.68;3.92;;;;;;;21.25;62.41;101748.47;5004909;28;20034;-65
2021/07/13 08:47:17;;;;;;;5.68;3.67;;;;;;;21.25;62.37;101751.16;4995600;28;20056;-65
2021/07/13 08:49:44;;;;;;;8.40;3.97;;;;;;;21.25;62.27;101753.00;5007573;28;20034;-65
2021/07/13 08:52:10;;;;;;;5.85;3.67;;;;;;;21.25;61.98;101753.81;4995799;28;20037;-65
2021/07/13 08:54:35;;;;;;;6.15;3.53;;;;;;;21.24;62.10;101752.13;5009007;28;20033;-65
2021/07/13 08:57:01;;;;;;;5.28;3.88;;;;;;;21.23;62.17;101756.66;4991465;28;20042;-66
2021/07/13 08:59:26;;;;;;;5.32;3.58;;;;;;;21.24;62.00;101752.13;5010619;28;20500;-66
2021/07/13 09:01:53;;;;;;;4.88;3.63;;;;;;;21.23;61.70;101745.97;5008851;28;20124;-66
2021/07/13 09:04:19;;;;;;;5.38;3.67;;;;;;;21.24;62.15;101744.13;5001727;28;20034;-66
2021/07/13 09:06:53;;;;;;;5.05;3.63;;;;;;;21.22;62.05;101746.16;5010418;28;20374;-66
2021/07/13 09:09:31;;;;;;;4.40;3.58;;;;;;;21.21;62.08;101744.50;5012707;28;20032;-67
2021/07/13 09:12:12;;;;;;;6.78;3.63;;;;;;;21.18;62.00;101743.03;5024638;28;20037;-66
2021/07/13 09:14:48;;;;;;;6.88;3.55;;;;;;;21.18;61.84;101745.72;5002189;28;20397;-67
2021/07/13 09:17:39;;;;;;;6.13;4.32;;;;;;;21.18;61.84;101742.22;5012101;28;20092;-66
2021/07/13 09:20:27;;;;;;;5.05;3.67;;;;;;;21.16;61.69;101742.41;5012019;28;20498;-66
2021/07/13 09:23:03;;;;;;;5.78;3.95;;;;;;;21.15;61.74;101735.41;4993376;28;20045;-65
2021/07/13 09:25:30;;;;;;;6.80;3.60;;;;;;;21.17;62.25;101743.22;5007108;28;20176;-66
2021/07/13 09:28:24;;;;;;;6.60;3.70;;;;;;;21.14;61.89;101741.72;5012460;28;20050;-66
2021/07/13 09:30:59;;;;;;;4.80;3.70;;;;;;;21.16;61.76;101744.25;5005596;28;20050;-66
2021/07/13 09:33:28;;;;;;;;;;;;;;;21.08;62.14;101745.16;4993540;28;20539;-66
2021/07/13 09:36:07;;;;;;;6.38;3.67;;;;;;;21.14;61.91;101741.72;4996444;28;20407;-66
2021/07/13 09:38:37;;;;;;;4.80;3.63;;;;;;;21.17;62.05;101744.06;4999102;28;20042;-66
2021/07/13 09:41:17;;;;;;;5.28;3.80;;;;;;;21.15;61.87;101748.75;5012472;28;20017;-66
2021/07/13 09:43:49;;;;;;;5.15;3.75;;;;;;;21.18;61.80;101744.88;4999362;28;20063;-66
2021/07/13 09:46:22;;;;;;;5.30;3.78;;;;;;;21.17;62.04;101751.22;5012042;28;20121;-66
2021/07/13 09:49:09;;;;;;;4.90;3.92;;;;;;;21.15;62.21;101748.75;4999591;28;20125;-66
2021/07/13 09:51:35;;;;;;;5.55;3.53;;;;;;;21.20;61.99;101754.34;5010884;28;20449;-66
2021/07/13 09:54:01;;;;;;;6.18;3.80;;;;;;;21.19;61.89;101752.69;5012306;28;20108;-66
2021/07/13 10:16:05;;;;;;;;;;;;;;;21.31;61.46;101763.78;5085524;27;21029;-66
2021/07/13 10:18:30;;;;;;;6.05;3.45;;;;;;;21.36;61.67;101761.38;5085560;28;19926;-66
2021/07/13 10:20:56;;;;;;;6.30;3.50;;;;;;;21.34;61.65;101758.06;5084534;28;20376;-66
2021/07/13 10:23:23;;;;;;;7.05;3.28;;;;;;;21.34;61.54;101759.91;5085559;28;20078;-66
2021/07/13 10:25:50;;;;;;;4.65;3.63;;;;;;;21.34;61.74;101763.41;5085457;28;20082;-66
2021/07/13 10:28:21;;;;;;;7.65;3.47;;;;;;;21.32;61.86;101761.94;5086043;28;20051;-66
2021/07/13 10:30:46;;;;;;;4.97;3.38;;;;;;;21.33;61.86;101761.75;5084448;28;20032;-66
2021/07/13 10:33:28;;;;;;;4.90;3.40;;;;;;;21.30;61.70;101758.59;5084673;28;20102;-66
2021/07/13 10:35:56;;;;;;;6.15;3.60;;;;;;;21.31;61.55;101753.09;5084448;28;20040;-66
2021/07/13 10:38:23;;;;;;;6.65;3.90;;;;;;;21.34;61.78;101765.25;5086180;28;20020;-66
2021/07/13 10:40:51;;;;;;;3.90;3.05;;;;;;;21.32;61.77;101762.75;5085168;28;20029;-66
2021/07/13 10:43:23;;;;;;;5.68;3.70;;;;;;;21.31;61.93;101750.44;5085261;28;20174;-66
2021/07/13 10:46:10;;;;;;;5.88;2.72;;;;;;;21.28;61.81;101752.63;5085628;28;20512;-66
2021/07/13 10:48:38;;;;;;;4.07;2.97;;;;;;;21.31;61.68;101752.28;5084247;28;20107;-66
2021/07/13 10:51:06;;;;;;;6.00;3.35;;;;;;;21.29;61.68;101755.09;5084837;28;20460;-66
2021/07/13 10:53:39;;;;;;;4.38;3.15;;;;;;;21.28;61.94;101761.44;5085053;28;20051;-66
2021/07/13 10:56:08;;;;;;;3.78;3.00;;;;;;;21.26;61.65;101760.81;5085106;28;20112;-67
2021/07/13 10:58:38;;;;;;;4.35;3.25;;;;;;;21.26;61.92;101771.47;5085188;28;20031;-66
2021/07/13 11:01:17;;;;;;;6.60;3.75;;;;;;;21.23;61.60;101772.66;5085141;28;20032;-66
2021/07/13 11:03:43;;;;;;;5.43;3.15;;;;;;;21.25;61.65;101769.84;5084725;28;20540;-67
2021/07/13 11:06:10;;;;;;;4.65;3.20;;;;;;;21.23;61.41;101764.66;5083894;28;20060;-67
2021/07/13 11:08:38;;;;;;;4.03;2.92;;;;;;;21.24;61.53;101770.81;5083682;28;20074;-67
2021/07/13 11:11:05;;;;;;;4.45;2.90;;;;;;;21.24;61.75;101776.16;5085136;28;20032;-67
2021/07/13 11:13:31;;;;;;;4.63;2.95;;;;;;;21.24;61.72;101778.81;5070190;28;20147;-67
2021/07/13 11:15:56;;;;;;;5.22;3.53;;;;;;;21.23;61.36;101785.16;5069728;28;20219;-67
2021/07/13 11:18:26;;;;;;;4.18;3.25;;;;;;;21.21;61.61;101781.84;5071671;28;20039;-66
2021/07/13 11:20:51;;;;;;;4.85;3.33;;;;;;;21.20;61.53;101782.88;5070352;28;20021;-66
2021/07/13 11:23:27;;;;;;;6.85;3.42;;;;;;;21.16;61.53;101781.59;5071466;28;20350;-66
2021/07/13 11:26:04;;;;;;;5.40;3.00;;;;;;;21.15;61.19;101780.78;5071033;28;20025;-66
2021/07/13 11:28:30;;;;;;;3.78;3.05;;;;;;;21.18;61.44;101784.91;5071301;28;20068;-66
2021/07/13 11:30:55;;;;;;;6.50;3.50;;;;;;;21.17;61.34;101781.41;5070855;28;20079;-66
2021/07/13 11:33:27;;;;;;;4.35;3.30;;;;;;;21.17;61.35;101788.59;5069796;28;20418;-66
2021/07/13 11:35:54;;;;;;;4.03;3.08;;;;;;;21.18;61.13;101791.06;5070059;28;20031;-66
2021/07/13 11:38:32;;;;;;;4.60;3.20;;;;;;;21.17;61.25;101792.09;5071280;28;20033;-66
2021/07/13 11:41:15;;;;;;;4.32;3.25;;;;;;;21.15;61.63;101801.28;5070214;28;20025;-66
2021/07/13 11:43:42;;;;;;;4.82;3.28;;;;;;;21.18;61.51;101798.25;5071775;28;20016;-65
2021/07/13 11:46:17;;;;;;;6.00;3.28;;;;;;;21.18;61.48;101812.41;5070348;28;20423;-66
2021/07/13 11:49:00;;;;;;;4.93;3.20;;;;;;;21.14;61.45;101795.09;5071885;28;20025;-65